Time;durP1;ratioP1;P1;durP2;ratioP2;P2;SDS_P1;SDS_P2;PMS_P1;PMS_P2;Temp;Humidity;BMP_temperature;BMP_pressure;BME280_temperature;BME280_humidity;BME280_pressure;Samples;Min_cycle;Max_cycle;Signal;HPM_P1;HPM_P2
2022/09/15 00:00:11;;;;;;;9.98;1.45;;;14.90;99.90;;;;;;5029197;28;20156;-65
2022/09/15 00:02:37;;;;;;;6.97;1.00;;;14.90;99.90;;;;;;5021609;28;20053;-65
2022/09/15 00:05:03;;;;;;;7.47;1.38;;;14.90;99.90;;;;;;5028310;28;20045;-65
2022/09/15 00:07:30;;;;;;;10.18;2.50;;;15.00;99.90;;;;;;5028889;28;20089;-65
2022/09/15 00:09:56;;;;;;;8.10;1.65;;;15.00;99.90;;;;;;5027489;28;20403;-64
2022/09/15 00:12:21;;;;;;;5.60;1.60;;;15.00;99.90;;;;;;5011904;28;20055;-65
2022/09/15 00:14:47;;;;;;;7.93;1.90;;;15.10;99.90;;;;;;5028009;28;20033;-65
2022/09/15 00:17:13;;;;;;;5.47;1.48;;;15.10;99.90;;;;;;5028858;28;20045;-65
2022/09/15 00:19:38;;;;;;;4.43;1.10;;;15.10;99.90;;;;;;5010255;28;20133;-65
2022/09/15 00:22:04;;;;;;;6.95;1.00;;;15.10;99.90;;;;;;5028374;28;20049;-65
2022/09/15 00:24:30;;;;;;;6.13;1.38;;;15.10;99.90;;;;;;5028972;28;20044;-66
2022/09/15 00:26:56;;;;;;;7.28;1.17;;;15.20;99.90;;;;;;5023040;28;20068;-65
2022/09/15 00:29:21;;;;;;;8.73;1.50;;;15.20;99.90;;;;;;5022564;28;20041;-65
2022/09/15 00:31:47;;;;;;;4.55;1.13;;;15.20;99.90;;;;;;5008719;28;20480;-65
2022/09/15 00:34:13;;;;;;;6.63;1.50;;;15.30;99.90;;;;;;5028675;28;20132;-65
2022/09/15 00:36:39;;;;;;;3.42;1.23;;;15.30;99.90;;;;;;5027410;28;20119;-65
2022/09/15 00:39:05;;;;;;;4.78;1.33;;;15.30;99.90;;;;;;5028577;28;20530;-65
2022/09/15 00:41:30;;;;;;;6.68;1.00;;;15.30;99.90;;;;;;4999424;28;20064;-65
2022/09/15 00:44:00;;;;;;;8.70;1.23;;;15.30;99.90;;;;;;5027818;28;20051;-65
2022/09/15 00:46:34;;;;;;;7.78;1.30;;;15.30;99.90;;;;;;5028361;28;20369;-65
2022/09/15 00:49:08;;;;;;;5.07;1.33;;;15.30;99.90;;;;;;5027257;28;20556;-65
2022/09/15 00:51:55;;;;;;;6.65;1.15;;;15.40;99.90;;;;;;5022245;28;20518;-66
2022/09/15 00:54:30;;;;;;;8.02;1.30;;;15.40;99.90;;;;;;5028142;28;20053;-65
2022/09/15 00:56:59;;;;;;;4.57;1.05;;;15.40;99.90;;;;;;5027701;28;20069;-65
2022/09/15 00:59:28;;;;;;;7.07;1.40;;;15.40;99.90;;;;;;5028857;28;20136;-65
2022/09/15 01:02:02;;;;;;;5.65;0.93;;;15.40;99.90;;;;;;5003289;28;20550;-65
2022/09/15 01:04:28;;;;;;;6.93;1.20;;;15.40;99.90;;;;;;5028758;28;20042;-65
2022/09/15 01:07:00;;;;;;;3.92;0.80;;;15.40;99.90;;;;;;5026102;28;20065;-65
2022/09/15 01:09:32;;;;;;;4.20;1.25;;;15.50;99.90;;;;;;5028493;28;20041;-65
2022/09/15 01:11:57;;;;;;;8.82;1.30;;;15.50;99.90;;;;;;5027253;28;20052;-65
2022/09/15 01:14:23;;;;;;;4.15;1.02;;;15.50;99.90;;;;;;5027129;28;20045;-65
2022/09/15 01:17:14;;;;;;;6.22;0.90;;;15.50;99.90;;;;;;5022193;28;20041;-65
2022/09/15 01:20:14;;;;;;;5.63;1.00;;;15.50;99.90;;;;;;5026761;28;20041;-64
2022/09/15 01:23:25;;;;;;;8.05;1.50;;;15.50;99.90;;;;;;5025741;28;20041;-65
2022/09/15 01:26:24;;;;;;;8.05;1.60;;;15.50;99.90;;;;;;5027380;28;20069;-65
2022/09/15 01:29:25;;;;;;;20.80;2.85;;;15.50;99.90;;;;;;4973600;28;20551;-65
2022/09/15 01:34:55;;;;;;;10.10;1.98;;;15.40;99.90;;;;;;5027249;28;20045;-65
2022/09/15 01:37:31;;;;;;;7.45;1.50;;;15.40;99.90;;;;;;5008985;28;20119;-65
2022/09/15 01:40:00;;;;;;;7.25;1.67;;;15.40;99.90;;;;;;5007417;28;20056;-65
2022/09/15 01:42:28;;;;;;;7.18;1.83;;;15.40;99.90;;;;;;5009509;28;20064;-65
2022/09/15 01:45:10;;;;;;;10.32;1.75;;;15.40;99.90;;;;;;5023657;28;20438;-65
2022/09/15 01:47:36;;;;;;;9.15;1.60;;;15.40;99.90;;;;;;5027864;28;20092;-65
2022/09/15 01:50:10;;;;;;;6.80;1.33;;;15.40;99.90;;;;;;5007115;28;20064;-65
2022/09/15 01:52:43;;;;;;;10.00;1.75;;;15.40;99.90;;;;;;5019007;28;20049;-65
2022/09/15 01:55:19;;;;;;;5.82;1.35;;;15.40;99.90;;;;;;5008349;28;20037;-65
2022/09/15 01:57:45;;;;;;;8.00;1.35;;;15.40;99.90;;;;;;5008229;28;20053;-65
2022/09/15 02:00:11;;;;;;;5.97;1.00;;;15.40;99.90;;;;;;5009401;28;20091;-65
2022/09/15 02:02:42;;;;;;;6.60;1.50;;;15.40;99.90;;;;;;5008116;28;20049;-65
2022/09/15 02:05:43;;;;;;;9.00;1.33;;;15.40;99.90;;;;;;5009524;28;20057;-65
2022/09/15 02:08:23;;;;;;;5.50;1.25;;;15.40;99.90;;;;;;4991683;28;20053;-65
2022/09/15 02:11:03;;;;;;;7.38;1.10;;;15.40;99.90;;;;;;5022993;28;20050;-66
2022/09/15 02:13:53;;;;;;;8.75;1.88;;;15.40;99.90;;;;;;5027452;28;20041;-65
2022/09/15 02:16:21;;;;;;;6.97;1.45;;;15.40;99.90;;;;;;5025686;28;20411;-65
2022/09/15 02:19:01;;;;;;;11.05;2.45;;;15.30;99.90;;;;;;5008566;28;20458;-65
2022/09/15 02:21:35;;;;;;;12.48;2.55;;;15.30;99.90;;;;;;5027434;28;20091;-65
2022/09/15 02:24:06;;;;;;;9.15;2.08;;;15.30;99.90;;;;;;5025556;28;20053;-65
2022/09/15 02:26:34;;;;;;;5.47;1.40;;;15.30;99.90;;;;;;5009004;28;20065;-65
2022/09/15 02:29:05;;;;;;;5.30;1.60;;;15.20;99.90;;;;;;5011592;28;20111;-65
2022/09/15 02:31:34;;;;;;;4.95;1.20;;;15.30;99.90;;;;;;5008339;28;20960;-65
2022/09/15 02:34:06;;;;;;;7.55;1.23;;;15.20;99.90;;;;;;5026695;28;20491;-65
2022/09/15 02:36:32;;;;;;;9.65;1.17;;;15.20;99.90;;;;;;5025850;28;20049;-65
2022/09/15 02:39:07;;;;;;;7.32;1.33;;;15.20;99.90;;;;;;5026596;28;20476;-64
2022/09/15 02:41:34;;;;;;;7.30;1.40;;;15.20;99.90;;;;;;5025391;28;20163;-66
2022/09/15 02:44:00;;;;;;;7.78;1.30;;;15.20;99.90;;;;;;5009562;28;20053;-65
2022/09/15 02:46:27;;;;;;;9.55;1.85;;;15.20;99.90;;;;;;5007152;28;20449;-65
2022/09/15 02:48:52;;;;;;;9.95;1.40;;;15.20;99.90;;;;;;5026220;28;20076;-65
2022/09/15 02:51:22;;;;;;;10.00;1.40;;;15.30;99.90;;;;;;5009240;28;20100;-65
2022/09/15 02:53:47;;;;;;;8.00;1.73;;;15.30;99.90;;;;;;5025919;28;20129;-65
2022/09/15 02:56:15;;;;;;;9.68;1.73;;;15.30;99.90;;;;;;5001736;28;20136;-65
2022/09/15 02:58:42;;;;;;;9.45;1.60;;;15.30;99.90;;;;;;5022628;28;20053;-65
2022/09/15 03:01:13;;;;;;;5.65;1.40;;;15.20;99.90;;;;;;5026233;28;20140;-65
2022/09/15 03:03:39;;;;;;;10.75;1.70;;;15.30;99.90;;;;;;5025075;28;20084;-64
2022/09/15 03:06:18;;;;;;;10.07;1.58;;;15.30;99.90;;;;;;5008260;28;20451;-65
2022/09/15 03:08:55;;;;;;;11.85;1.55;;;15.20;99.90;;;;;;5026622;28;20625;-65
2022/09/15 03:11:24;;;;;;;10.70;2.83;;;15.10;99.90;;;;;;5011032;28;20049;-65
2022/09/15 03:14:00;;;;;;;8.45;1.55;;;15.10;99.90;;;;;;5031004;28;20117;-65
2022/09/15 03:16:28;;;;;;;8.50;1.60;;;15.10;99.90;;;;;;4993951;28;20046;-65
2022/09/15 03:18:55;;;;;;;12.25;2.38;;;15.00;99.90;;;;;;5030870;28;20053;-65
2022/09/15 03:21:21;;;;;;;10.30;2.95;;;15.00;99.90;;;;;;5029411;28;20052;-65
2022/09/15 03:23:47;;;;;;;6.57;1.75;;;15.00;99.90;;;;;;5030175;28;20045;-65
2022/09/15 03:26:13;;;;;;;8.73;1.98;;;15.00;99.90;;;;;;5028586;28;20083;-65
2022/09/15 03:28:40;;;;;;;10.55;2.10;;;14.90;99.90;;;;;;5011910;28;20041;-65
2022/09/15 03:31:07;;;;;;;8.57;1.67;;;15.00;95.00;;;;;;5029597;28;20041;-66
2022/09/15 03:33:33;;;;;;;9.13;1.80;;;15.00;97.00;;;;;;5028953;28;20045;-65
2022/09/15 03:35:59;;;;;;;9.05;2.00;;;15.00;96.40;;;;;;5012468;28;20462;-65
2022/09/15 03:38:25;;;;;;;7.90;1.23;;;15.00;94.40;;;;;;5027325;28;20049;-65
2022/09/15 03:41:17;;;;;;;10.07;2.10;;;15.00;95.20;;;;;;5030332;28;20503;-65
2022/09/15 03:43:43;;;;;;;10.77;2.45;;;15.00;94.20;;;;;;5012460;28;20045;-65
2022/09/15 03:46:13;;;;;;;7.20;2.17;;;14.90;90.90;;;;;;5028186;28;20049;-65
2022/09/15 03:48:41;;;;;;;10.80;2.45;;;15.00;91.60;;;;;;5011679;28;20041;-65
2022/09/15 03:51:09;;;;;;;13.00;2.80;;;15.00;91.30;;;;;;4994209;28;20137;-65
2022/09/15 03:53:37;;;;;;;16.75;3.60;;;15.00;92.50;;;;;;5012035;28;20053;-65
2022/09/15 03:56:10;;;;;;;11.02;2.67;;;14.90;92.40;;;;;;5011294;28;20053;-65
2022/09/15 03:58:36;;;;;;;8.77;2.03;;;14.90;91.30;;;;;;5027804;28;20675;-64
2022/09/15 04:01:02;;;;;;;9.38;2.35;;;14.90;90.60;;;;;;5028234;28;20045;-65
2022/09/15 04:03:28;;;;;;;14.18;2.83;;;15.00;91.20;;;;;;5009752;28;20053;-65
2022/09/15 04:05:54;;;;;;;9.30;1.77;;;15.10;92.20;;;;;;5029863;28;20124;-65
2022/09/15 04:08:19;;;;;;;9.98;1.83;;;15.00;93.10;;;;;;5022235;28;20564;-64
2022/09/15 04:10:45;;;;;;;11.00;3.03;;;15.10;94.10;;;;;;5029587;28;20064;-65
2022/09/15 04:13:11;;;;;;;9.82;2.15;;;15.10;94.00;;;;;;5011062;28;20128;-65
2022/09/15 04:15:36;;;;;;;7.70;2.13;;;15.10;97.20;;;;;;5028086;28;20111;-65
2022/09/15 04:18:03;;;;;;;6.07;1.88;;;15.20;98.30;;;;;;5011028;28;20049;-65
2022/09/15 04:20:30;;;;;;;13.10;2.08;;;15.10;99.80;;;;;;5008538;28;20060;-65
2022/09/15 04:22:56;;;;;;;13.90;2.03;;;15.10;97.70;;;;;;5011764;28;20054;-65
2022/09/15 04:25:21;;;;;;;8.10;1.73;;;15.10;95.30;;;;;;5009333;28;20519;-65
2022/09/15 04:27:47;;;;;;;10.25;1.50;;;15.10;94.10;;;;;;5006179;28;20085;-65
2022/09/15 04:30:16;;;;;;;9.18;1.70;;;15.10;93.70;;;;;;5027922;28;20046;-65
2022/09/15 04:32:41;;;;;;;7.72;2.08;;;15.10;93.90;;;;;;4994434;28;20049;-65
2022/09/15 04:35:08;;;;;;;4.97;1.70;;;15.10;93.90;;;;;;5028968;28;20044;-65
2022/09/15 04:37:34;;;;;;;11.57;1.52;;;15.00;89.40;;;;;;5026927;28;20045;-65
2022/09/15 04:40:00;;;;;;;9.35;2.75;;;15.00;87.70;;;;;;5026766;28;20399;-65
2022/09/15 04:42:26;;;;;;;7.97;1.60;;;15.00;83.90;;;;;;5009013;28;20465;-65
2022/09/15 04:44:52;;;;;;;4.35;1.15;;;15.00;81.50;;;;;;5011227;28;20049;-65
2022/09/15 04:47:18;;;;;;;8.07;1.35;;;15.00;83.30;;;;;;5027266;28;20451;-65
2022/09/15 04:49:44;;;;;;;8.20;1.40;;;14.90;85.70;;;;;;4998460;28;20050;-65
2022/09/15 04:52:10;;;;;;;5.78;1.02;;;14.90;85.40;;;;;;4994120;28;20110;-65
2022/09/15 04:54:36;;;;;;;7.50;1.55;;;14.90;84.60;;;;;;5028114;28;20049;-65
2022/09/15 04:57:02;;;;;;;5.70;1.35;;;15.00;85.20;;;;;;5028580;28;20064;-65
2022/09/15 04:59:27;;;;;;;6.85;1.38;;;15.00;83.60;;;;;;5002793;28;20112;-64
2022/09/15 05:01:54;;;;;;;7.10;1.40;;;15.00;84.10;;;;;;5025503;28;20531;-65
2022/09/15 05:04:21;;;;;;;3.50;1.13;;;15.00;84.50;;;;;;5026682;28;20060;-65
2022/09/15 05:06:46;;;;;;;5.00;1.35;;;15.00;83.40;;;;;;5028852;28;20049;-64
2022/09/15 05:09:13;;;;;;;5.25;1.48;;;15.00;84.50;;;;;;5026667;28;20471;-65
2022/09/15 05:11:39;;;;;;;8.75;1.75;;;15.00;87.70;;;;;;5000046;28;20052;-65
2022/09/15 05:14:05;;;;;;;2.55;0.90;;;15.00;87.30;;;;;;5028131;28;20056;-65
2022/09/15 05:16:31;;;;;;;9.93;2.03;;;14.90;88.20;;;;;;5027105;28;20064;-65
2022/09/15 05:18:59;;;;;;;3.92;1.13;;;14.90;90.50;;;;;;5028304;28;20487;-65
2022/09/15 05:21:26;;;;;;;5.10;0.77;;;14.90;90.80;;;;;;5025528;28;20064;-65
2022/09/15 05:23:52;;;;;;;5.90;1.17;;;14.90;91.00;;;;;;5028362;28;20398;-65
2022/09/15 05:26:24;;;;;;;4.88;1.13;;;14.90;94.80;;;;;;5025548;28;20057;-65
2022/09/15 05:28:50;;;;;;;8.23;1.55;;;14.90;97.90;;;;;;5010814;28;20407;-65
2022/09/15 05:31:18;;;;;;;9.68;1.73;;;15.00;99.90;;;;;;5026364;28;20046;-65
2022/09/15 05:33:45;;;;;;;7.85;1.10;;;15.00;99.90;;;;;;5027194;28;20090;-64
2022/09/15 05:36:13;;;;;;;8.98;1.95;;;15.00;99.90;;;;;;5018043;28;20128;-65
2022/09/15 05:38:38;;;;;;;10.18;1.60;;;15.00;99.90;;;;;;5042534;28;20045;-66
2022/09/15 05:41:10;;;;;;;7.78;1.67;;;15.10;99.90;;;;;;5037024;28;20079;-65
2022/09/15 05:43:38;;;;;;;6.25;1.23;;;15.10;99.90;;;;;;5007665;28;20144;-65
2022/09/15 05:46:05;;;;;;;8.40;1.60;;;15.10;99.90;;;;;;5011967;28;20052;-65
2022/09/15 05:48:31;;;;;;;9.63;1.23;;;15.10;99.90;;;;;;5009775;28;20412;-65
2022/09/15 05:50:57;;;;;;;9.73;1.60;;;15.10;99.60;;;;;;5026833;28;20045;-65
2022/09/15 05:53:23;;;;;;;9.00;1.67;;;15.10;99.80;;;;;;5007611;28;20126;-66
2022/09/15 05:55:57;;;;;;;9.40;1.50;;;15.10;97.90;;;;;;5025645;28;20046;-65
2022/09/15 05:58:24;;;;;;;12.43;2.58;;;15.10;97.80;;;;;;5027455;28;20113;-66
2022/09/15 06:00:52;;;;;;;10.95;2.03;;;15.20;98.40;;;;;;5009745;28;20041;-65
2022/09/15 06:03:18;;;;;;;10.10;2.22;;;15.20;97.40;;;;;;5022778;28;20087;-66
2022/09/15 06:05:44;;;;;;;11.25;2.17;;;15.20;98.50;;;;;;5042453;28;20056;-65
2022/09/15 06:08:11;;;;;;;23.58;2.35;;;15.20;97.70;;;;;;5037637;28;20531;-65
2022/09/15 06:10:37;;;;;;;12.05;2.45;;;15.20;96.10;;;;;;5015596;28;20348;-65
2022/09/15 06:13:04;;;;;;;14.80;2.78;;;15.20;95.10;;;;;;5023875;28;20047;-65
2022/09/15 06:15:31;;;;;;;5.97;1.63;;;15.20;94.30;;;;;;5033770;28;20052;-64
2022/09/15 06:17:57;;;;;;;11.43;1.88;;;15.20;92.40;;;;;;5007896;28;20045;-65
2022/09/15 06:20:22;;;;;;;12.40;1.80;;;15.20;96.30;;;;;;5016990;28;20068;-65
2022/09/15 06:22:48;;;;;;;5.55;1.33;;;15.30;96.00;;;;;;5010704;28;20045;-65
2022/09/15 06:25:14;;;;;;;5.32;1.10;;;15.20;97.10;;;;;;5026506;28;20133;-65
2022/09/15 06:27:40;;;;;;;9.80;1.60;;;15.20;98.20;;;;;;5026569;28;20383;-64
2022/09/15 06:30:08;;;;;;;6.32;1.35;;;15.20;97.60;;;;;;5002703;28;20053;-64
2022/09/15 06:32:35;;;;;;;5.82;0.82;;;15.20;98.20;;;;;;4986168;28;20042;-65
2022/09/15 06:35:05;;;;;;;6.15;1.08;;;15.10;98.30;;;;;;5025448;28;20188;-64
2022/09/15 06:37:31;;;;;;;6.55;1.13;;;15.00;97.90;;;;;;5026876;28;20049;-65
2022/09/15 06:39:57;;;;;;;8.35;1.10;;;15.00;98.80;;;;;;5005725;28;20130;-65
2022/09/15 06:42:22;;;;;;;5.13;1.20;;;15.00;98.20;;;;;;5024879;28;20041;-65
2022/09/15 06:44:48;;;;;;;7.15;1.58;;;14.90;97.70;;;;;;5007412;28;20053;-65
2022/09/15 06:47:16;;;;;;;9.38;1.13;;;14.90;98.40;;;;;;5021299;28;20059;-65
2022/09/15 06:49:42;;;;;;;9.10;1.55;;;14.80;99.50;;;;;;5031425;28;20045;-65
2022/09/15 06:52:08;;;;;;;9.90;1.52;;;14.80;98.30;;;;;;5024593;28;20085;-65
2022/09/15 06:54:34;;;;;;;14.43;1.80;;;14.90;99.10;;;;;;5019498;28;20049;-65
2022/09/15 06:56:59;;;;;;;7.47;1.85;;;14.90;99.40;;;;;;5006405;28;20147;-65
2022/09/15 06:59:26;;;;;;;7.25;1.50;;;14.80;99.90;;;;;;5027133;28;20049;-65
2022/09/15 07:01:53;;;;;;;11.95;1.63;;;14.90;99.30;;;;;;5024227;28;20041;-65
2022/09/15 07:04:19;;;;;;;9.52;1.85;;;14.90;99.00;;;;;;5024407;28;20034;-65
2022/09/15 07:06:45;;;;;;;12.52;1.40;;;14.90;97.60;;;;;;5039391;28;20048;-64
2022/09/15 07:09:11;;;;;;;10.43;1.65;;;15.00;96.30;;;;;;5024744;28;20045;-64
2022/09/15 07:11:37;;;;;;;6.68;1.30;;;15.10;96.00;;;;;;5012396;28;20077;-64
2022/09/15 07:14:03;;;;;;;12.88;1.77;;;15.30;95.60;;;;;;5002909;28;20052;-65
2022/09/15 07:16:29;;;;;;;11.85;1.83;;;15.40;95.20;;;;;;5031054;28;20037;-65
2022/09/15 07:18:57;;;;;;;7.50;1.25;;;15.60;95.90;;;;;;5025321;28;20451;-65
2022/09/15 07:21:23;;;;;;;7.65;1.40;;;15.80;93.70;;;;;;5026197;28;20041;-65
2022/09/15 07:23:49;;;;;;;8.15;1.42;;;16.00;95.40;;;;;;5023960;28;20694;-65
2022/09/15 07:26:25;;;;;;;7.22;1.70;;;16.00;93.60;;;;;;5024896;28;20124;-65
2022/09/15 07:28:54;;;;;;;7.65;1.70;;;16.00;91.60;;;;;;5026325;28;20088;-65
2022/09/15 07:31:22;;;;;;;13.55;2.10;;;15.90;95.50;;;;;;5024484;28;20041;-66
2022/09/15 07:33:48;;;;;;;11.95;1.90;;;15.80;95.50;;;;;;4991358;28;20094;-65
2022/09/15 07:36:14;;;;;;;7.60;1.80;;;15.80;99.90;;;;;;5040149;28;20507;-65
2022/09/15 07:38:42;;;;;;;9.30;1.48;;;15.60;99.90;;;;;;5044822;28;20387;-65
2022/09/15 07:41:10;;;;;;;10.27;1.98;;;15.60;99.90;;;;;;5042681;28;20061;-66
2022/09/15 07:43:37;;;;;;;16.98;2.65;;;15.60;99.90;;;;;;5040315;28;20045;-65
2022/09/15 07:46:03;;;;;;;12.32;2.28;;;15.70;99.90;;;;;;5039929;28;20398;-65
2022/09/15 07:48:29;;;;;;;13.60;1.73;;;15.80;99.90;;;;;;5040680;28;20510;-65
2022/09/15 07:50:55;;;;;;;7.28;2.05;;;15.90;99.90;;;;;;5044230;28;20053;-65
2022/09/15 07:53:21;;;;;;;6.07;1.60;;;16.00;99.90;;;;;;5023520;28;20057;-65
2022/09/15 07:55:54;;;;;;;14.60;1.70;;;16.10;99.90;;;;;;5024356;28;20122;-65
2022/09/15 07:58:21;;;;;;;8.82;1.40;;;16.20;99.90;;;;;;5029287;28;20174;-65
2022/09/15 08:00:47;;;;;;;9.80;1.73;;;16.20;99.90;;;;;;5044910;28;20112;-65
2022/09/15 08:03:14;;;;;;;3.88;0.90;;;16.20;99.90;;;;;;5047021;28;20444;-65
2022/09/15 08:05:40;;;;;;;9.13;1.02;;;16.20;99.90;;;;;;5038009;28;20475;-65
2022/09/15 08:08:05;;;;;;;6.07;1.02;;;16.20;98.30;;;;;;5047199;28;20056;-65
2022/09/15 08:10:32;;;;;;;9.27;1.05;;;16.20;98.50;;;;;;5016895;28;20041;-65
2022/09/15 08:12:58;;;;;;;3.92;1.55;;;16.30;97.80;;;;;;5038938;28;20072;-65
2022/09/15 08:15:24;;;;;;;5.13;1.50;;;16.50;97.70;;;;;;5046198;28;20049;-65
2022/09/15 08:17:50;;;;;;;3.88;1.23;;;16.60;97.20;;;;;;5010069;28;20048;-65
2022/09/15 08:20:16;;;;;;;9.15;1.45;;;16.60;96.40;;;;;;5029172;28;20045;-65
2022/09/15 08:22:44;;;;;;;7.70;1.25;;;16.70;96.10;;;;;;5027137;28;20049;-65
2022/09/15 08:25:13;;;;;;;7.53;1.40;;;16.60;92.90;;;;;;5028122;28;20343;-65
2022/09/15 08:27:39;;;;;;;9.50;1.45;;;16.40;95.10;;;;;;5038636;28;20041;-65
2022/09/15 08:30:05;;;;;;;35.50;3.42;;;16.10;99.50;;;;;;5034820;28;20414;-65
2022/09/15 08:32:31;;;;;;;13.45;2.10;;;15.70;99.90;;;;;;5042750;28;20048;-65
2022/09/15 08:34:57;;;;;;;6.45;1.17;;;15.30;99.90;;;;;;5042975;28;20796;-65
2022/09/15 08:37:23;;;;;;;9.52;1.08;;;15.00;99.90;;;;;;5022565;28;20049;-64
2022/09/15 08:39:48;;;;;;;9.52;1.60;;;14.70;99.90;;;;;;5026411;28;20131;-64
2022/09/15 08:42:19;;;;;;;5.50;1.25;;;14.70;99.90;;;;;;5038228;28;20444;-65
2022/09/15 08:45:00;;;;;;;6.43;1.30;;;14.60;99.90;;;;;;5025015;28;20060;-65
2022/09/15 08:47:37;;;;;;;4.60;0.90;;;14.70;99.90;;;;;;4997711;28;20054;-65
2022/09/15 08:50:21;;;;;;;6.30;1.05;;;14.80;99.90;;;;;;5009489;28;20049;-65
2022/09/15 08:53:12;;;;;;;6.38;1.13;;;15.00;99.90;;;;;;5008849;28;20053;-65
2022/09/15 08:55:52;;;;;;;9.00;1.30;;;15.10;99.90;;;;;;5026471;28;20116;-65
2022/09/15 08:58:22;;;;;;;10.25;1.50;;;15.30;99.90;;;;;;5025632;28;20038;-65
2022/09/15 09:01:06;;;;;;;4.65;0.82;;;15.50;99.90;;;;;;5017538;28;20406;-65
2022/09/15 09:03:59;;;;;;;5.95;1.05;;;15.60;99.90;;;;;;5028838;28;20045;-65
2022/09/15 09:06:46;;;;;;;5.80;1.20;;;15.70;99.90;;;;;;5014142;28;20058;-65
2022/09/15 09:09:23;;;;;;;3.17;1.10;;;15.80;99.90;;;;;;5022828;28;20061;-65
2022/09/15 09:12:05;;;;;;;6.82;0.95;;;15.80;99.90;;;;;;5009849;28;20060;-64
2022/09/15 09:14:40;;;;;;;4.95;1.00;;;15.90;99.90;;;;;;5009077;28;20045;-65
2022/09/15 09:17:09;;;;;;;7.00;1.00;;;16.00;99.90;;;;;;5028387;28;20120;-65
2022/09/15 09:20:17;;;;;;;10.48;1.77;;;16.00;99.90;;;;;;5025686;28;20038;-65
2022/09/15 09:22:46;;;;;;;9.23;1.15;;;16.20;99.90;;;;;;5026790;28;20392;-64
2022/09/15 09:25:18;;;;;;;11.05;1.33;;;16.40;99.90;;;;;;5027841;28;20053;-64
2022/09/15 09:27:45;;;;;;;10.82;1.20;;;16.50;99.90;;;;;;5007760;28;20049;-64
2022/09/15 09:30:17;;;;;;;4.47;1.10;;;16.50;99.40;;;;;;5010666;28;20060;-67
2022/09/15 09:33:02;;;;;;;5.28;1.30;;;16.60;99.30;;;;;;5029356;28;20065;-67
2022/09/15 09:35:43;;;;;;;15.88;1.90;;;16.60;99.90;;;;;;5020154;28;20049;-67
2022/09/15 09:38:11;;;;;;;7.93;1.23;;;16.60;99.90;;;;;;5027736;28;20060;-67
2022/09/15 09:40:40;;;;;;;6.97;1.20;;;16.60;99.90;;;;;;5021409;28;20077;-66
2022/09/15 09:43:09;;;;;;;9.07;1.05;;;16.60;99.90;;;;;;5023364;28;20053;-67
2022/09/15 09:45:35;;;;;;;12.02;1.02;;;16.60;99.90;;;;;;5026163;28;20500;-67
2022/09/15 09:48:12;;;;;;;5.90;1.10;;;16.80;99.90;;;;;;5026297;28;20056;-67
2022/09/15 09:50:44;;;;;;;8.68;1.50;;;16.90;99.90;;;;;;5025889;28;20056;-66
2022/09/15 09:53:26;;;;;;;6.50;1.38;;;16.90;95.90;;;;;;5021917;28;20084;-66
2022/09/15 09:55:54;;;;;;;4.25;1.23;;;16.90;96.40;;;;;;5023896;28;20081;-67
2022/09/15 09:58:24;;;;;;;5.07;1.08;;;16.90;90.90;;;;;;5012857;28;20096;-67
2022/09/15 10:00:53;;;;;;;7.10;1.30;;;16.80;91.90;;;;;;4990796;28;20048;-67
2022/09/15 10:03:23;;;;;;;3.83;0.88;;;16.70;84.60;;;;;;5025088;28;20128;-66
2022/09/15 10:06:05;;;;;;;9.50;1.48;;;16.60;87.40;;;;;;5043271;28;20053;-67
2022/09/15 10:08:31;;;;;;;10.10;1.27;;;16.60;92.20;;;;;;5024968;28;20402;-67
2022/09/15 10:11:04;;;;;;;8.32;1.20;;;16.60;94.90;;;;;;5040211;28;20037;-67
2022/09/15 10:13:31;;;;;;;8.10;1.30;;;16.60;94.30;;;;;;5038912;28;20508;-66
2022/09/15 10:16:01;;;;;;;8.43;1.00;;;16.60;90.90;;;;;;5027777;28;20042;-67
2022/09/15 10:18:37;;;;;;;11.73;1.98;;;16.60;92.60;;;;;;5008807;28;20511;-66
2022/09/15 10:21:08;;;;;;;4.53;1.35;;;16.60;92.20;;;;;;5036339;28;20049;-66
2022/09/15 10:23:35;;;;;;;4.85;1.20;;;16.50;92.20;;;;;;5042343;28;20068;-67
2022/09/15 10:26:21;;;;;;;6.32;1.50;;;16.50;92.90;;;;;;5019787;28;20056;-66
2022/09/15 10:29:09;;;;;;;4.75;1.35;;;16.40;90.60;;;;;;5043701;28;20044;-66
2022/09/15 10:31:34;;;;;;;9.45;1.25;;;16.30;86.60;;;;;;5038622;28;20087;-67
2022/09/15 10:34:26;;;;;;;6.55;1.23;;;16.50;92.20;;;;;;5023662;28;20573;-67
2022/09/15 10:36:57;;;;;;;5.63;1.02;;;16.90;91.00;;;;;;5041671;28;20499;-67
2022/09/15 10:39:59;;;;;;;7.13;1.10;;;17.40;92.00;;;;;;5043513;28;20033;-67
2022/09/15 10:42:55;;;;;;;8.05;1.00;;;17.50;79.70;;;;;;4944478;29;20095;-67
2022/09/15 10:45:36;;;;;;;4.40;1.08;;;17.40;76.10;;;;;;5018725;28;20049;-66
2022/09/15 10:48:05;;;;;;;9.13;1.15;;;17.20;79.30;;;;;;5043724;28;20076;-66
2022/09/15 10:50:55;;;;;;;8.77;1.40;;;17.00;78.20;;;;;;5026067;28;20501;-67
2022/09/15 10:53:57;;;;;;;9.73;1.50;;;16.70;82.40;;;;;;5044115;28;20839;-67
2022/09/15 10:56:28;;;;;;;10.43;1.40;;;16.60;96.30;;;;;;5025817;28;20387;-66
2022/09/15 10:59:02;;;;;;;5.25;1.30;;;16.50;99.90;;;;;;5038888;28;20467;-66
2022/09/15 11:01:30;;;;;;;12.15;4.40;;;16.30;99.90;;;;;;5016924;28;20045;-66
2022/09/15 11:04:28;;;;;;;6.85;1.65;;;16.10;99.90;;;;;;5018497;28;20111;-67
2022/09/15 11:07:08;;;;;;;10.98;1.77;;;15.80;99.90;;;;;;5006499;28;20454;-67
2022/09/15 11:09:40;;;;;;;7.65;1.55;;;15.50;99.90;;;;;;5017219;28;20049;-67
2022/09/15 11:12:27;;;;;;;8.70;1.63;;;15.50;99.90;;;;;;5024909;28;20045;-67
2022/09/15 11:15:02;;;;;;;6.97;1.38;;;15.60;99.90;;;;;;5021273;28;20092;-67
2022/09/15 11:18:07;;;;;;;6.65;1.08;;;15.70;99.90;;;;;;5019445;28;20091;-67
2022/09/15 11:20:36;;;;;;;9.30;1.60;;;15.70;99.90;;;;;;5024254;28;20338;-67
2022/09/15 11:23:18;;;;;;;3.78;1.30;;;15.80;99.90;;;;;;5024003;28;20080;-67
2022/09/15 11:25:50;;;;;;;6.50;0.98;;;15.80;99.90;;;;;;5021923;28;20088;-67
2022/09/15 11:28:24;;;;;;;7.25;1.50;;;15.70;99.90;;;;;;4993077;28;20103;-67
2022/09/15 11:31:01;;;;;;;10.63;2.00;;;15.60;99.90;;;;;;5025847;28;20056;-68
2022/09/15 11:33:39;;;;;;;6.38;2.17;;;15.50;99.90;;;;;;5007007;28;20042;-69
2022/09/15 11:36:21;;;;;;;29.05;5.95;;;15.20;99.90;;;;;;5009738;28;20057;-68
2022/09/15 11:39:15;;;;;;;15.48;3.85;;;14.90;99.90;;;;;;5037422;28;20052;-69
2022/09/15 11:42:08;;;;;;;4.93;1.50;;;14.70;99.90;;;;;;5008438;28;20037;-69
2022/09/15 11:44:40;;;;;;;6.10;1.35;;;14.40;99.90;;;;;;5037320;28;20094;-70
2022/09/15 11:47:54;;;;;;;7.32;1.60;;;14.30;99.90;;;;;;5004586;28;20790;-71
2022/09/15 11:50:27;;;;;;;3.47;0.65;;;14.30;99.90;;;;;;4991039;28;20052;-71
2022/09/15 11:53:10;;;;;;;8.30;1.00;;;14.40;99.90;;;;;;5022954;28;20041;-69
2022/09/15 11:55:46;;;;;;;4.25;1.20;;;14.40;99.90;;;;;;5010314;28;20058;-69
2022/09/15 11:58:39;;;;;;;5.47;1.10;;;14.50;99.90;;;;;;5009675;28;20059;-69
2022/09/15 12:01:23;;;;;;;5.50;1.00;;;14.80;99.90;;;;;;5019658;28;20107;-69
2022/09/15 12:03:52;;;;;;;7.05;1.45;;;15.10;99.90;;;;;;5010299;28;20390;-67
2022/09/15 12:06:36;;;;;;;7.93;1.50;;;15.20;99.90;;;;;;5013282;28;20052;-67
2022/09/15 12:09:04;;;;;;;8.07;1.38;;;15.30;99.90;;;;;;4996861;28;20322;-68
2022/09/15 12:11:34;;;;;;;7.32;1.73;;;15.20;99.90;;;;;;5010877;28;20029;-69
2022/09/15 12:14:03;;;;;;;5.82;1.30;;;15.10;99.90;;;;;;5007411;28;20124;-70
2022/09/15 12:16:30;;;;;;;5.85;1.52;;;14.90;99.90;;;;;;5023085;28;20053;-70
2022/09/15 12:19:12;;;;;;;5.85;2.13;;;14.80;99.90;;;;;;5022775;28;20056;-70
2022/09/15 12:21:46;;;;;;;13.63;2.10;;;14.70;99.90;;;;;;5025307;28;20076;-72
2022/09/15 12:24:19;;;;;;;10.55;2.63;;;14.50;99.90;;;;;;5023602;28;20422;-75
2022/09/15 12:26:46;;;;;;;9.70;2.20;;;14.50;99.90;;;;;;5020190;28;20102;-74
2022/09/15 12:29:21;;;;;;;12.82;2.28;;;14.50;99.90;;;;;;5019505;28;20045;-73
2022/09/15 12:31:47;;;;;;;9.90;3.55;;;14.50;99.90;;;;;;5022439;28;20552;-74
2022/09/15 12:34:32;;;;;;;6.05;2.33;;;14.50;99.90;;;;;;5025969;28;20073;-73
2022/09/15 12:37:12;;;;;;;7.00;1.80;;;14.50;99.90;;;;;;5012096;28;20463;-74
2022/09/15 12:39:44;;;;;;;7.38;2.60;;;14.50;99.90;;;;;;5007910;28;20036;-73
2022/09/15 12:42:13;;;;;;;5.82;2.58;;;14.60;99.90;;;;;;5019424;28;20209;-73
2022/09/15 12:44:54;;;;;;;15.27;2.63;;;14.70;99.90;;;;;;5021431;28;20033;-73
2022/09/15 12:47:49;;;;;;;10.73;2.88;;;14.80;99.90;;;;;;5027283;28;20037;-73
2022/09/15 12:50:15;;;;;;;9.55;2.58;;;14.90;99.90;;;;;;5006854;28;20059;-72
2022/09/15 12:53:02;;;;;;;10.75;1.73;;;14.90;99.90;;;;;;5026065;28;20041;-72
2022/09/15 12:55:35;;;;;;;6.85;1.33;;;15.10;99.90;;;;;;5024061;28;20498;-72
2022/09/15 12:58:14;;;;;;;5.63;1.40;;;15.10;99.90;;;;;;5012608;28;20053;-71
2022/09/15 13:00:43;;;;;;;5.85;1.77;;;15.20;99.90;;;;;;5017414;28;20048;-71
2022/09/15 13:03:47;;;;;;;6.25;1.33;;;15.30;99.90;;;;;;5023632;28;20135;-71
2022/09/15 13:06:30;;;;;;;9.60;1.65;;;15.50;99.90;;;;;;5009476;28;20406;-71
2022/09/15 13:09:05;;;;;;;7.22;1.45;;;15.70;99.90;;;;;;5008875;28;20058;-71
2022/09/15 13:11:36;;;;;;;5.93;1.70;;;15.90;99.90;;;;;;5009901;28;20053;-70